Detroit Metro, MI

6:24 PM EDT on March 24, 2017 (GMT -0400)
West Shore Estates | | Change Station

Elev 584 ft 42.14 °N, 83.17 °W | Updated 2 seconds ago

Scattered Clouds
Scattered Clouds
74.4 °F
Feels Like 77 °F
N
5.0
Wind Variable Wind from ESE
Gusts 11.0 mph

Today
High -- | Low -- °F
--% Chance of Precip.
Yesterday
High -- | Low -- °F
Precip. -- in
Pressure 29.93 in
Visibility 9.0 miles
Clouds Few 6000 ft
Scattered Clouds 22000 ft
Heat Index 77 °F
Dew Point 55.6 °F
Humidity 52%
Rainfall 0.32 in
Snow Depth Not available.
7:29 AM 7:50 PM
Waning Crescent, 12% visible
METAR KDTW 242153Z 21014KT 9SM FEW060 SCT220 24/13 A2993 RMK AO2 PK WND 24028/2114 SLP135 T02390128
Pressure 29.93 in
Visibility 9.0 miles
Clouds Few 6000 ft
Scattered Clouds 22000 ft
Heat Index 77 °F
Dew Point 55.6 °F
Humidity 52%
Rainfall 0.32 in
Snow Depth Not available.
7:29 AM 7:50 PM
Waning Crescent, 12% visible
METAR KDTW 242153Z 21014KT 9SM FEW060 SCT220 24/13 A2993 RMK AO2 PK WND 24028/2114 SLP135 T02390128

Get Severe Weather Alerts

Thanks for signing up!

Be on the lookout for a verification email in your inbox.

You'll start receiving the daily forecast at 8 AM.

×

10-Day Weather Forecast

Almanac

Astronomy

Mar. 24, 2017 Rise Set
Actual Time
Civil Twilight
Nautical Twilight
Astronomical Twilight
Moon
Length of Visible Light
Length of Day
Tomorrow will be .
, % of the Moon is Illuminated

Today's Extremes

State Highs State Lows

Community

WunderPhotos

Upload Photos

1,962,540 photos uploaded!

WunderBlog® & News

Nearby

Air Quality

  Air Quality AQ Index Pollutant
Not available.

Snow Depth

Station Depth Elevation

Earthquake Activity

City Distance Mag. Time & Date
Minimum magnitude displayed is 2.5.

Earthquake Activity

City Distance Mag. Time & Date
Minimum magnitude displayed is 2.5.

Coastal Water Temperatures

Place Temperature

Stations

Nearby Weather Stations

Station Location Temp. Windchill Dew Point Humidity Wind Precip. Elev Updated Type
                   

Watches & Warnings

There are currently no watches in effect.